Time;durP1;ratioP1;P1;durP2;ratioP2;P2;SDS_P1;SDS_P2;PMS_P1;PMS_P2;Temp;Humidity;BMP_temperature;BMP_pressure;BME280_temperature;BME280_humidity;BME280_pressure;Samples;Min_cycle;Max_cycle;Signal;HPM_P1;HPM_P2
2022/06/10 00:00:42;;;;;;;20.50;18.40;;;;;;;15.50;95.92;97738.41;108556;1285;23282;-85
2022/06/10 00:03:12;;;;;;;17.30;15.70;;;;;;;15.54;95.74;97734.95;108546;1283;22351;-85
2022/06/10 00:05:42;;;;;;;18.20;16.40;;;;;;;15.56;95.93;97733.08;108568;1285;22308;-84
2022/06/10 00:08:12;;;;;;;16.10;14.60;;;;;;;15.53;95.82;97735.01;108573;1286;22861;-85
2022/06/10 00:10:41;;;;;;;16.20;14.80;;;;;;;15.52;95.70;97740.24;108555;1285;22499;-85
2022/06/10 00:13:09;;;;;;;18.70;16.80;;;;;;;15.49;96.02;97739.35;108534;1287;22285;-84
2022/06/10 00:15:37;;;;;;;17.40;15.70;;;;;;;15.44;95.73;97744.41;108726;1285;23038;-81
2022/06/10 00:18:05;;;;;;;16.20;14.50;;;;;;;15.44;95.77;97744.72;108706;1285;22487;-83
2022/06/10 00:20:39;;;;;;;;;;;;;;;15.48;96.12;97744.92;108567;1287;23170;-83
2022/06/10 00:23:08;;;;;;;16.30;14.70;;;;;;;15.41;95.68;97747.56;108600;1285;22308;-83
2022/06/10 00:25:37;;;;;;;16.60;15.20;;;;;;;15.39;95.38;97748.44;108574;1283;23112;-83
2022/06/10 00:28:06;;;;;;;16.40;14.70;;;;;;;15.40;95.28;97752.96;108558;1286;22377;-83
2022/06/10 00:30:36;;;;;;;17.80;14.50;;;;;;;15.41;95.26;97759.80;108574;1285;22372;-83
2022/06/10 00:33:05;;;;;;;16.50;15.00;;;;;;;15.41;95.25;97761.23;108320;1287;22301;-82
2022/06/10 00:35:34;;;;;;;18.80;16.90;;;;;;;15.46;95.20;97761.61;108435;1287;22331;-82
2022/06/10 00:38:04;;;;;;;18.10;16.40;;;;;;;15.49;94.99;97760.46;108576;1284;22302;-82
2022/06/10 00:40:36;;;;;;;16.50;15.00;;;;;;;15.52;94.97;97760.88;108548;1285;22367;-82
2022/06/10 00:43:05;;;;;;;18.90;17.20;;;;;;;15.52;95.01;97762.21;108555;1285;22399;-82
2022/06/10 00:46:01;;;;;;;20.30;18.60;;;;;;;15.50;95.08;97756.23;108585;1285;22367;-83
2022/06/10 00:48:56;;;;;;;20.30;18.30;;;;;;;15.49;95.42;97761.58;108561;1285;22491;-83
2022/06/10 00:51:34;;;;;;;20.40;18.30;;;;;;;15.49;95.36;97757.21;108577;1285;22365;-83
2022/06/10 00:54:12;;;;;;;20.10;18.20;;;;;;;15.53;95.14;97762.46;108592;1286;23089;-84
2022/06/10 00:56:46;;;;;;;21.00;19.00;;;;;;;15.54;94.98;97764.63;108570;1283;22436;-83
2022/06/10 00:59:25;;;;;;;;;;;;;;;15.57;94.99;97769.36;108521;1286;22558;-83
2022/06/10 01:01:59;;;;;;;23.10;20.90;;;;;;;15.54;94.96;97771.21;108370;1285;22359;-83
2022/06/10 01:04:27;;;;;;;22.20;19.90;;;;;;;15.55;95.05;97772.55;108567;1285;22246;-83
2022/06/10 01:06:57;;;;;;;22.80;20.60;;;;;;;15.55;95.11;97772.80;108335;1286;22369;-84
2022/06/10 01:09:28;;;;;;;24.60;22.40;;;;;;;15.54;95.17;97766.55;108574;1285;23005;-83
2022/06/10 01:12:21;;;;;;;31.30;25.60;;;;;;;15.52;95.13;97765.16;108428;1287;22454;-84
2022/06/10 01:15:04;;;;;;;24.60;22.30;;;;;;;15.52;95.20;97769.56;108578;1285;22367;-83
2022/06/10 01:17:39;;;;;;;22.30;20.40;;;;;;;15.52;94.91;97763.38;108569;1284;22312;-83
2022/06/10 01:20:29;;;;;;;21.50;19.50;;;;;;;15.51;94.69;97761.95;108561;1285;22404;-83
2022/06/10 01:23:12;;;;;;;21.00;19.00;;;;;;;15.51;94.68;97759.78;108569;1285;22360;-82
2022/06/10 01:25:45;;;;;;;21.10;19.30;;;;;;;15.52;94.72;97760.27;108573;1285;22348;-83
2022/06/10 01:28:32;;;;;;;20.30;18.50;;;;;;;15.52;94.64;97764.52;108559;1285;22409;-83
2022/06/10 01:31:15;;;;;;;20.90;18.80;;;;;;;15.50;94.78;97768.89;108579;1285;23188;-82
2022/06/10 01:33:53;;;;;;;18.40;16.70;;;;;;;15.48;94.94;97767.34;108565;1285;22231;-83
2022/06/10 01:36:36;;;;;;;17.90;16.30;;;;;;;15.41;94.98;97765.70;108566;1285;22243;-83
2022/06/10 01:39:21;;;;;;;16.90;15.30;;;;;;;15.36;94.61;97764.36;108574;1286;22371;-83
2022/06/10 01:41:58;;;;;;;16.70;15.00;;;;;;;15.35;94.84;97765.83;108549;1285;22349;-83
2022/06/10 01:44:35;;;;;;;16.70;15.00;;;;;;;15.35;94.67;97773.11;108557;1285;22273;-83
2022/06/10 01:47:11;;;;;;;15.90;14.50;;;;;;;15.33;94.66;97774.59;108551;1285;22503;-83
2022/06/10 01:49:51;;;;;;;16.60;15.00;;;;;;;15.35;94.69;97780.68;108543;1286;22343;-83
2022/06/10 01:52:19;;;;;;;16.40;15.00;;;;;;;15.35;94.52;97782.78;108554;1285;23065;-84
2022/06/10 01:54:58;;;;;;;15.90;14.00;;;;;;;15.35;94.72;97784.28;108549;1286;22498;-83
2022/06/10 01:57:31;;;;;;;16.60;15.00;;;;;;;15.32;94.75;97787.95;108548;1283;22416;-83
2022/06/10 02:00:06;;;;;;;16.60;15.00;;;;;;;15.27;95.09;97791.48;108562;1286;22440;-83
2022/06/10 02:02:39;;;;;;;16.50;15.00;;;;;;;15.21;94.89;97796.40;108528;1286;22422;-82
2022/06/10 02:05:13;;;;;;;16.20;14.70;;;;;;;15.21;94.89;97796.41;108357;1286;22400;-83
2022/06/10 02:08:20;;;;;;;16.60;14.00;;;;;;;15.25;94.73;97798.01;108409;1287;22386;-83
2022/06/10 02:10:58;;;;;;;15.10;13.80;;;;;;;15.27;94.56;97798.54;108424;1286;23529;-83
2022/06/10 02:13:37;;;;;;;15.40;14.00;;;;;;;15.27;94.53;97799.73;108547;1285;22401;-83
2022/06/10 02:16:12;;;;;;;16.00;14.50;;;;;;;15.30;94.61;97805.25;108396;1287;22447;-84
2022/06/10 02:18:45;;;;;;;16.50;15.00;;;;;;;15.31;94.45;97800.95;108574;1286;22809;-83
2022/06/10 02:21:21;;;;;;;17.10;15.30;;;;;;;15.31;94.48;97804.73;108564;1284;22977;-81
2022/06/10 02:24:09;;;;;;;17.40;15.50;;;;;;;15.31;94.67;97809.55;108367;1286;23217;-84
2022/06/10 02:26:38;;;;;;;14.90;13.50;;;;;;;15.29;94.42;97813.30;108546;1285;22278;-83
2022/06/10 02:29:17;;;;;;;15.30;13.80;;;;;;;15.26;94.48;97815.19;108556;1283;22392;-84
2022/06/10 02:31:50;;;;;;;15.50;14.10;;;;;;;15.20;94.55;97816.52;108561;1285;22483;-83
2022/06/10 02:34:18;;;;;;;15.50;14.00;;;;;;;15.17;94.81;97821.45;108541;1285;22292;-83
2022/06/10 02:36:58;;;;;;;15.00;13.60;;;;;;;15.13;94.85;97816.88;108395;1287;22362;-83
2022/06/10 02:39:45;;;;;;;16.70;14.50;;;;;;;15.11;94.86;97826.02;108535;1285;23095;-83
2022/06/10 02:42:37;;;;;;;18.30;15.90;;;;;;;15.10;95.27;97830.27;108547;1285;22533;-83
2022/06/10 02:45:17;;;;;;;17.90;16.20;;;;;;;15.06;95.12;97829.46;108569;1285;22374;-83
2022/06/10 02:47:52;;;;;;;20.40;18.40;;;;;;;15.04;95.33;97842.28;108557;1285;22240;-84
2022/06/10 02:50:20;;;;;;;20.10;17.90;;;;;;;15.04;95.48;97846.02;108334;1286;22301;-83
2022/06/10 02:52:48;;;;;;;21.90;20.10;;;;;;;15.06;95.86;97849.99;108529;1285;23070;-82
2022/06/10 02:55:21;;;;;;;21.40;19.60;;;;;;;15.06;95.68;97851.94;108382;1287;22428;-84
2022/06/10 03:04:06;;;;;;;20.20;18.40;;;;;;;15.08;96.00;97858.73;108565;1285;22248;-83
2022/06/10 03:06:45;;;;;;;21.00;18.80;;;;;;;15.09;96.58;97859.14;108587;1285;22384;-83
2022/06/10 03:09:56;;;;;;;21.20;19.30;;;;;;;15.11;96.76;97860.22;108596;1285;22349;-83
2022/06/10 03:12:38;;;;;;;22.70;19.00;;;;;;;15.09;96.74;97862.06;108095;1285;22473;-82
2022/06/10 03:15:53;;;;;;;21.60;19.60;;;;;;;15.10;96.62;97865.86;108417;1286;22565;-84
2022/06/10 03:18:43;;;;;;;20.90;19.10;;;;;;;15.13;96.49;97870.45;108240;1286;23278;-83
2022/06/10 03:21:16;;;;;;;21.30;19.30;;;;;;;15.16;96.50;97867.94;108561;1285;23047;-82
2022/06/10 03:24:11;;;;;;;20.10;18.40;;;;;;;15.18;96.28;97871.60;108348;1286;22440;-82
2022/06/10 03:26:49;;;;;;;18.50;16.90;;;;;;;15.25;96.71;97873.08;108062;1286;23112;-83
2022/06/10 03:29:26;;;;;;;17.90;15.80;;;;;;;15.34;96.63;97867.61;108573;1285;22423;-82
2022/06/10 03:32:00;;;;;;;17.80;16.20;;;;;;;15.38;96.69;97867.95;108568;1286;23174;-81
2022/06/10 03:34:37;;;;;;;16.50;15.00;;;;;;;15.37;96.73;97872.23;108551;1285;22388;-83
2022/06/10 03:37:07;;;;;;;19.60;17.70;;;;;;;15.38;96.66;97878.34;108540;1285;22259;-83
2022/06/10 03:39:35;;;;;;;22.20;20.00;;;;;;;15.42;96.59;97886.38;108362;1286;22495;-83
2022/06/10 03:42:03;;;;;;;22.20;20.20;;;;;;;15.44;96.63;97892.83;108271;1287;22315;-83
2022/06/10 03:44:32;;;;;;;20.20;18.30;;;;;;;15.46;96.56;97895.20;108565;1285;23214;-83
2022/06/10 03:47:03;;;;;;;21.30;19.20;;;;;;;15.49;96.61;97897.86;108562;1286;23122;-82
2022/06/10 03:49:37;;;;;;;23.40;21.00;;;;;;;15.53;96.52;97898.56;108540;1285;22424;-85
2022/06/10 03:52:06;;;;;;;23.00;20.60;;;;;;;15.57;96.48;97906.31;108565;1285;22988;-83
2022/06/10 03:54:34;;;;;;;22.20;20.00;;;;;;;15.60;96.53;97910.69;108546;1285;22303;-83
2022/06/10 03:57:02;;;;;;;20.50;18.60;;;;;;;15.61;96.51;97912.28;108582;1285;22439;-83
2022/06/10 03:59:30;;;;;;;19.80;18.00;;;;;;;15.61;96.60;97912.24;108589;1285;22434;-83
2022/06/10 04:01:57;;;;;;;18.80;16.90;;;;;;;15.61;96.85;97918.67;108604;1286;23064;-83
2022/06/10 04:04:25;;;;;;;22.60;20.10;;;;;;;15.61;96.75;97918.30;108561;1285;23045;-83
2022/06/10 04:06:53;;;;;;;22.40;19.20;;;;;;;15.66;96.64;97920.01;108561;1285;22390;-81
2022/06/10 04:09:26;;;;;;;16.70;15.10;;;;;;;15.71;96.65;97921.38;108355;1286;22487;-82
2022/06/10 04:11:55;;;;;;;14.80;13.50;;;;;;;15.73;96.93;97925.89;108553;1285;23598;-85
2022/06/10 04:14:23;;;;;;;16.50;15.10;;;;;;;15.70;97.29;97922.50;108576;1285;22244;-81
2022/06/10 04:16:51;;;;;;;20.40;18.70;;;;;;;15.66;97.27;97923.66;108252;1288;22353;-81
2022/06/10 04:19:19;;;;;;;24.10;21.70;;;;;;;15.69;97.07;97920.52;108538;1285;22522;-82
2022/06/10 04:21:47;;;;;;;24.30;22.20;;;;;;;15.72;97.26;97920.86;108314;1286;22297;-81
2022/06/10 04:24:15;;;;;;;23.00;21.10;;;;;;;15.73;97.40;97922.38;108543;1286;22449;-81
2022/06/10 04:26:43;;;;;;;23.10;21.20;;;;;;;15.72;97.75;97922.67;108546;1283;22459;-82
2022/06/10 04:29:14;;;;;;;24.90;22.70;;;;;;;15.73;98.01;97925.58;108396;1287;22271;-81
2022/06/10 04:31:42;;;;;;;25.00;22.80;;;;;;;15.72;98.00;97926.38;108582;1285;22442;-82
2022/06/10 04:34:11;;;;;;;32.30;28.80;;;;;;;15.73;98.03;97935.67;108548;1285;22950;-81
2022/06/10 04:36:40;;;;;;;25.70;22.80;;;;;;;15.77;98.11;97934.65;108563;1285;22271;-81
2022/06/10 04:39:08;;;;;;;27.40;24.60;;;;;;;15.78;97.89;97937.65;108600;1286;23256;-82
2022/06/10 04:41:37;;;;;;;25.60;23.20;;;;;;;15.85;98.15;97938.20;108562;1286;22365;-82
2022/06/10 04:44:05;;;;;;;31.70;27.10;;;;;;;15.89;98.29;97943.41;108409;1287;22425;-82
2022/06/10 04:46:38;;;;;;;28.60;25.80;;;;;;;15.93;98.27;97943.85;108559;1285;22301;-82
2022/06/10 04:49:06;;;;;;;31.60;28.50;;;;;;;15.94;98.29;97950.95;108554;1285;22432;-81
2022/06/10 04:51:36;;;;;;;33.70;30.60;;;;;;;15.95;98.13;97953.86;108558;1285;22339;-81
2022/06/10 04:54:05;;;;;;;34.20;30.90;;;;;;;15.97;98.03;97954.52;108324;1286;22232;-81
2022/06/10 04:56:35;;;;;;;37.00;33.00;;;;;;;16.02;98.42;97959.99;108525;1285;22811;-82
2022/06/10 04:59:02;;;;;;;33.50;30.20;;;;;;;16.00;98.30;97963.27;108565;1286;22434;-81
2022/06/10 05:01:31;;;;;;;36.40;32.90;;;;;;;16.01;98.39;97964.80;108594;1285;22367;-82
2022/06/10 05:03:59;;;;;;;36.80;33.20;;;;;;;16.02;98.25;97963.20;108579;1285;22438;-81
2022/06/10 05:06:27;;;;;;;43.70;36.10;;;;;;;16.03;98.15;97966.80;108563;1285;22378;-82
2022/06/10 05:08:56;;;;;;;47.30;42.20;;;;;;;16.09;98.38;97972.08;108556;1285;22570;-82
2022/06/10 05:11:24;;;;;;;44.50;40.20;;;;;;;16.11;98.60;97973.31;108554;1286;22372;-82
2022/06/10 05:13:52;;;;;;;39.90;36.00;;;;;;;16.12;98.83;97976.64;108572;1285;22411;-82
2022/06/10 05:16:25;;;;;;;38.20;34.60;;;;;;;16.11;98.75;97980.61;108401;1287;22425;-82
2022/06/10 05:18:54;;;;;;;39.70;35.80;;;;;;;16.12;98.92;97986.71;108570;1286;22807;-81
2022/06/10 05:21:22;;;;;;;44.50;40.20;;;;;;;16.11;99.33;97990.27;108049;1288;22423;-82
2022/06/10 05:23:50;;;;;;;39.00;35.10;;;;;;;16.07;99.11;97996.80;108408;1286;22403;-84
2022/06/10 05:26:18;;;;;;;40.30;36.20;;;;;;;16.07;99.01;97998.17;108600;1286;22411;-83
2022/06/10 05:28:50;;;;;;;43.80;39.30;;;;;;;16.14;99.03;98003.09;108588;1286;22568;-83
2022/06/10 05:31:18;;;;;;;43.70;38.90;;;;;;;16.17;99.07;98004.03;108615;1285;22456;-82
2022/06/10 05:36:33;;;;;;;39.20;35.30;;;;;;;16.20;99.11;98006.24;108571;1286;22285;-83
2022/06/10 05:39:01;;;;;;;41.50;37.10;;;;;;;16.23;99.14;98009.87;108555;1286;22458;-83
2022/06/10 05:44:15;;;;;;;41.90;37.60;;;;;;;16.28;99.19;98016.41;108589;1286;22318;-83
2022/06/10 05:46:43;;;;;;;39.60;35.60;;;;;;;16.27;99.40;98021.04;108535;1285;22476;-83
2022/06/10 05:49:11;;;;;;;37.60;34.10;;;;;;;16.27;99.39;98026.69;108332;1286;23153;-82
2022/06/10 05:51:39;;;;;;;41.10;37.00;;;;;;;16.29;99.29;98031.44;108555;1286;23626;-82
2022/06/10 05:54:07;;;;;;;42.50;38.20;;;;;;;16.35;99.54;98030.59;108539;1285;23288;-81
2022/06/10 05:56:35;;;;;;;41.30;37.10;;;;;;;16.40;99.63;98030.84;108317;1286;22401;-82
2022/06/10 05:59:04;;;;;;;39.70;35.90;;;;;;;16.45;99.59;98030.24;108548;1285;22267;-83
2022/06/10 06:01:32;;;;;;;42.90;38.50;;;;;;;16.47;99.59;98033.79;108352;1286;22297;-83
2022/06/10 06:03:59;;;;;;;46.40;41.50;;;;;;;16.47;99.61;98034.96;108361;1286;22270;-82
2022/06/10 06:06:27;;;;;;;39.20;35.60;;;;;;;16.48;99.59;98042.25;108544;1284;22433;-81
2022/06/10 06:08:55;;;;;;;39.80;35.80;;;;;;;16.46;99.43;98044.83;108533;1285;22342;-81
2022/06/10 06:11:24;;;;;;;37.90;34.50;;;;;;;16.49;99.42;98046.84;108540;1286;22372;-81
2022/06/10 06:13:52;;;;;;;35.10;32.00;;;;;;;16.52;99.38;98047.20;108526;1286;22469;-82
2022/06/10 06:16:21;;;;;;;35.90;32.80;;;;;;;16.54;99.59;98049.84;108322;1286;22554;-83
2022/06/10 06:18:50;;;;;;;38.10;34.90;;;;;;;16.55;99.49;98052.65;108538;1286;22364;-81
2022/06/10 06:21:18;;;;;;;39.10;35.60;;;;;;;16.55;99.46;98052.73;108540;1285;22401;-84
2022/06/10 06:23:49;;;;;;;40.30;36.90;;;;;;;16.55;99.34;98052.91;108553;1286;22352;-84
2022/06/10 06:26:17;;;;;;;38.50;35.30;;;;;;;16.56;99.35;98053.34;108413;1286;22538;-84
2022/06/10 06:28:45;;;;;;;39.20;36.00;;;;;;;16.56;99.35;98050.94;108567;1286;22448;-83
2022/06/10 06:31:12;;;;;;;41.10;37.70;;;;;;;16.62;99.27;98051.05;108553;1285;22275;-85
2022/06/10 06:33:41;;;;;;;38.00;34.70;;;;;;;16.66;99.31;98056.39;108553;1285;23058;-85
2022/06/10 06:36:17;;;;;;;36.70;33.60;;;;;;;16.68;99.18;98057.14;108538;1286;22265;-82
2022/06/10 06:38:45;;;;;;;38.50;35.10;;;;;;;16.65;99.22;98057.61;108413;1287;22377;-85
2022/06/10 06:41:13;;;;;;;37.90;34.60;;;;;;;16.66;99.20;98062.69;108298;1286;22341;-84
2022/06/10 06:43:42;;;;;;;35.20;32.10;;;;;;;16.71;99.25;98066.60;108545;1285;23019;-84
2022/06/10 06:46:15;;;;;;;33.40;30.60;;;;;;;16.80;99.28;98068.41;108589;1286;22306;-86
2022/06/10 06:48:44;;;;;;;30.60;27.80;;;;;;;16.88;99.23;98076.09;108319;1286;22276;-85
2022/06/10 06:51:13;;;;;;;28.70;26.30;;;;;;;16.96;99.08;98074.66;108554;1285;22353;-86
2022/06/10 06:53:41;;;;;;;26.40;23.90;;;;;;;17.02;98.71;98077.20;108557;1286;22769;-86
2022/06/10 06:56:09;;;;;;;24.80;22.80;;;;;;;17.03;98.68;98078.18;108561;1286;22244;-85
2022/06/10 06:58:37;;;;;;;28.30;25.80;;;;;;;17.06;98.56;98083.88;108583;1285;22495;-85
2022/06/10 07:01:05;;;;;;;27.90;25.40;;;;;;;17.08;98.44;98079.64;108417;1286;22443;-85
2022/06/10 07:03:33;;;;;;;31.80;29.10;;;;;;;17.03;98.28;98087.10;108549;1286;23038;-85
2022/06/10 07:06:01;;;;;;;32.80;30.00;;;;;;;16.99;98.29;98085.17;108538;1286;22499;-85
2022/06/10 07:08:32;;;;;;;34.10;31.20;;;;;;;16.96;98.29;98087.73;108189;1286;22457;-84
2022/06/10 07:11:03;;;;;;;40.30;36.80;;;;;;;16.91;98.17;98082.05;108527;1286;22427;-85
2022/06/10 07:13:31;;;;;;;36.00;32.60;;;;;;;16.90;98.46;98084.33;108543;1286;22457;-85
2022/06/10 07:16:01;;;;;;;34.10;31.20;;;;;;;16.92;98.37;98085.17;108292;1286;22468;-85
2022/06/10 07:18:30;;;;;;;35.30;32.20;;;;;;;16.91;98.34;98086.37;108424;1287;22349;-86
2022/06/10 07:20:58;;;;;;;31.10;28.50;;;;;;;16.92;98.41;98091.72;108405;1287;22463;-84
2022/06/10 07:23:27;;;;;;;33.30;30.20;;;;;;;16.93;98.51;98094.84;108545;1285;22359;-84
2022/06/10 07:25:55;;;;;;;31.60;28.90;;;;;;;16.93;98.48;98099.52;108593;1286;22846;-83
2022/06/10 07:28:23;;;;;;;30.80;28.10;;;;;;;16.95;98.41;98103.72;108429;1287;22358;-84
2022/06/10 07:30:51;;;;;;;30.10;27.50;;;;;;;16.92;98.43;98100.33;108549;1286;23315;-85
2022/06/10 07:33:19;;;;;;;29.10;26.50;;;;;;;16.80;98.67;98106.45;108278;1287;22448;-86
2022/06/10 07:35:47;;;;;;;30.90;27.90;;;;;;;16.73;98.85;98103.90;108521;1286;22299;-85
2022/06/10 07:38:15;;;;;;;29.00;26.30;;;;;;;16.68;99.20;98110.40;108531;1286;23144;-85
2022/06/10 07:43:42;;;;;;;28.70;25.90;;;;;;;16.57;99.67;98112.52;108521;1286;22319;-85
2022/06/10 07:46:15;;;;;;;26.90;24.50;;;;;;;16.54;99.88;98109.45;108386;1287;22393;-84
2022/06/10 07:48:45;;;;;;;25.60;23.30;;;;;;;16.57;99.95;98110.55;108521;1286;22301;-88
2022/06/10 07:51:13;;;;;;;26.40;24.20;;;;;;;16.55;99.99;98108.08;108420;1287;23131;-85
2022/06/10 07:53:41;;;;;;;27.30;24.90;;;;;;;16.57;100.00;98109.95;108524;1286;22386;-84
2022/06/10 07:56:13;;;;;;;28.70;26.20;;;;;;;16.57;99.99;98109.87;108539;1286;22364;-84
2022/06/10 07:58:42;;;;;;;28.20;25.50;;;;;;;16.63;100.00;98111.48;108518;1286;22559;-84
2022/06/10 08:01:11;;;;;;;25.10;22.70;;;;;;;16.69;100.00;98113.48;108517;1286;22307;-84
2022/06/10 08:03:47;;;;;;;23.20;20.90;;;;;;;16.77;99.98;98111.46;108531;1286;22450;-84
2022/06/10 08:06:18;;;;;;;23.00;20.80;;;;;;;16.86;100.00;98109.29;108525;1286;22299;-84
2022/06/10 08:08:47;;;;;;;22.70;20.60;;;;;;;16.95;99.78;98113.48;108432;1286;22422;-85
2022/06/10 08:11:15;;;;;;;21.70;19.70;;;;;;;16.98;99.63;98115.64;108219;1287;22361;-85
2022/06/10 08:13:43;;;;;;;20.60;18.70;;;;;;;17.04;99.46;98115.67;108258;1287;22975;-84
2022/06/10 08:16:12;;;;;;;20.70;18.90;;;;;;;17.08;99.32;98113.55;108267;1287;22594;-84
2022/06/10 08:18:41;;;;;;;20.60;18.90;;;;;;;17.15;98.88;98119.05;108263;1287;22410;-84
2022/06/10 08:24:05;;;;;;;19.00;17.30;;;;;;;17.28;98.53;98116.89;108446;1287;22385;-84
2022/06/10 08:26:34;;;;;;;20.20;18.40;;;;;;;17.38;98.50;98118.70;108270;1287;22337;-84
2022/06/10 08:29:03;;;;;;;18.10;16.50;;;;;;;17.45;98.30;98122.60;108232;1287;22362;-84
2022/06/10 08:31:31;;;;;;;19.50;17.70;;;;;;;17.52;98.50;98125.63;108402;1287;23159;-84
2022/06/10 08:33:59;;;;;;;19.10;17.30;;;;;;;17.56;98.03;98129.59;108393;1286;22366;-84
2022/06/10 08:36:27;;;;;;;17.40;15.80;;;;;;;17.55;97.71;98128.86;108275;1287;22366;-85
2022/06/10 08:38:56;;;;;;;17.30;15.90;;;;;;;17.52;97.56;98139.44;108246;1287;22259;-85
2022/06/10 08:41:51;;;;;;;17.10;15.60;;;;;;;17.47;97.25;98138.30;108462;1287;22265;-85
2022/06/10 08:44:40;;;;;;;17.30;15.70;;;;;;;17.37;97.13;98139.99;108438;1286;23215;-84
2022/06/10 08:47:27;;;;;;;16.80;15.20;;;;;;;17.36;97.38;98139.17;108436;1287;22366;-85
2022/06/10 08:50:16;;;;;;;16.30;14.70;;;;;;;17.43;97.40;98138.48;108453;1286;22454;-84
2022/06/10 08:53:05;;;;;;;13.30;12.10;;;;;;;17.49;96.98;98145.80;108264;1289;22994;-85
2022/06/10 08:55:47;;;;;;;15.60;14.10;;;;;;;17.50;96.65;98143.57;108434;1286;22360;-85
2022/06/10 08:58:21;;;;;;;16.60;15.10;;;;;;;17.49;96.34;98146.40;108271;1288;22353;-84
2022/06/10 09:01:00;;;;;;;16.80;14.70;;;;;;;17.45;95.70;98152.17;108231;1288;22283;-85
2022/06/10 09:03:39;;;;;;;14.40;13.00;;;;;;;17.39;96.19;98154.33;108223;1288;22282;-83
2022/06/10 09:06:16;;;;;;;16.20;14.60;;;;;;;17.44;96.04;98158.38;108275;1288;22395;-83
2022/06/10 09:08:48;;;;;;;14.80;13.40;;;;;;;17.42;95.58;98165.96;108044;1288;22273;-84
2022/06/10 09:11:24;;;;;;;14.50;13.10;;;;;;;17.38;95.45;98171.23;108229;1288;23159;-83
2022/06/10 09:14:16;;;;;;;15.20;13.70;;;;;;;17.30;95.20;98169.49;108248;1288;22312;-83
2022/06/10 09:16:58;;;;;;;13.70;12.40;;;;;;;17.30;95.69;98175.54;108444;1285;22288;-83
2022/06/10 09:19:39;;;;;;;13.90;12.70;;;;;;;17.33;95.47;98176.91;108446;1287;22329;-83
2022/06/10 09:22:28;;;;;;;14.40;13.20;;;;;;;17.39;95.28;98179.08;108259;1288;23292;-84
2022/06/10 09:25:08;;;;;;;14.90;13.60;;;;;;;17.43;95.14;98185.11;108420;1287;22461;-83
2022/06/10 09:27:39;;;;;;;14.70;13.30;;;;;;;17.53;94.69;98182.80;108453;1287;22493;-84
2022/06/10 09:30:11;;;;;;;14.20;12.80;;;;;;;17.64;94.60;98186.53;108214;1288;22303;-84
2022/06/10 09:33:02;;;;;;;14.60;13.40;;;;;;;17.79;94.38;98186.49;108451;1287;22379;-84
2022/06/10 09:35:51;;;;;;;17.20;15.00;;;;;;;17.90;94.00;98184.46;108204;1288;22324;-84
2022/06/10 09:38:23;;;;;;;16.30;14.90;;;;;;;17.90;92.44;98188.04;108452;1287;22960;-84
2022/06/10 09:41:16;;;;;;;15.90;14.10;;;;;;;17.88;92.69;98189.86;108253;1288;22424;-84
2022/06/10 09:43:56;;;;;;;15.60;14.00;;;;;;;17.84;92.57;98193.30;108477;1287;22460;-84
2022/06/10 09:46:30;;;;;;;16.20;14.50;;;;;;;17.76;92.68;98195.10;108260;1287;22358;-83
2022/06/10 09:49:12;;;;;;;14.60;13.40;;;;;;;17.76;93.03;98199.05;108441;1286;22388;-83
2022/06/10 09:52:01;;;;;;;13.70;12.50;;;;;;;17.76;93.12;98199.38;108235;1288;22459;-84
2022/06/10 09:54:29;;;;;;;16.10;14.70;;;;;;;17.73;92.75;98199.82;108445;1287;22356;-83
2022/06/10 09:57:02;;;;;;;15.10;13.60;;;;;;;17.63;92.53;98199.19;108247;1287;22358;-84
2022/06/10 09:59:35;;;;;;;16.00;14.70;;;;;;;17.68;93.09;98201.54;108438;1286;22053;-84
2022/06/10 10:02:30;;;;;;;16.50;15.00;;;;;;;17.78;93.20;98202.44;108113;1288;22330;-83
2022/06/10 10:05:28;;;;;;;14.90;13.50;;;;;;;17.87;92.31;98205.23;108443;1287;22419;-84
2022/06/10 10:08:05;;;;;;;18.30;16.80;;;;;;;17.88;92.43;98206.21;108268;1286;22416;-84
2022/06/10 10:10:53;;;;;;;17.90;15.90;;;;;;;17.91;91.52;98211.66;108425;1286;22435;-84
2022/06/10 10:13:36;;;;;;;18.10;16.30;;;;;;;17.89;91.82;98216.13;108255;1287;23631;-84
2022/06/10 10:16:10;;;;;;;19.50;14.70;;;;;;;17.91;92.19;98215.86;108442;1287;23032;-83
2022/06/10 10:18:53;;;;;;;15.30;13.80;;;;;;;17.98;92.29;98212.61;108413;1287;22463;-84
2022/06/10 10:21:45;;;;;;;16.90;14.50;;;;;;;18.03;91.81;98219.70;108082;1287;218577;-84
2022/06/10 10:24:20;;;;;;;16.70;15.00;;;;;;;17.98;91.82;98220.56;108251;1287;22308;-84
2022/06/10 10:26:51;;;;;;;17.20;15.60;;;;;;;17.92;91.52;98223.84;108265;1288;23203;-84
2022/06/10 10:29:27;;;;;;;18.90;17.00;;;;;;;17.90;91.34;98224.48;108215;1288;22980;-84
2022/06/10 10:32:14;;;;;;;17.40;15.70;;;;;;;17.83;91.51;98229.69;108446;1286;22370;-85
2022/06/10 10:34:47;;;;;;;18.40;16.80;;;;;;;17.78;91.69;98230.43;108212;1288;22327;-84
2022/06/10 10:37:27;;;;;;;19.10;17.30;;;;;;;17.72;91.83;98230.55;108464;1286;22986;-86
2022/06/10 10:40:22;;;;;;;19.00;17.30;;;;;;;17.65;92.06;98229.40;108219;1288;22426;-85
2022/06/10 10:42:55;;;;;;;20.30;18.50;;;;;;;17.69;92.04;98231.23;108280;1287;22414;-84
2022/06/10 10:45:34;;;;;;;19.90;17.80;;;;;;;17.68;91.88;98232.00;108446;1286;23204;-84
2022/06/10 10:48:15;;;;;;;24.80;20.10;;;;;;;17.69;92.04;98235.45;108246;1287;22361;-84
2022/06/10 10:50:53;;;;;;;20.10;18.20;;;;;;;17.73;92.04;98236.34;108277;1287;22478;-84
2022/06/10 10:53:30;;;;;;;22.40;20.30;;;;;;;17.74;91.66;98239.09;108255;1287;22436;-83
2022/06/10 10:56:01;;;;;;;21.20;19.20;;;;;;;17.71;91.48;98234.73;108478;1286;22314;-83
2022/06/10 10:58:39;;;;;;;22.20;19.90;;;;;;;17.64;91.43;98240.02;108429;1286;23224;-83
2022/06/10 11:01:43;;;;;;;20.30;18.50;;;;;;;17.59;91.36;98236.27;108528;1286;22271;-84
2022/06/10 11:04:02;;;;;;;19.00;17.40;;;;;;;17.55;91.72;98235.67;108517;1285;23318;-83
2022/06/10 11:06:34;;;;;;;18.70;16.80;;;;;;;17.57;92.10;98236.67;108502;1285;22369;-84
2022/06/10 11:09:23;;;;;;;18.60;16.70;;;;;;;17.68;91.92;98231.13;108242;1287;22432;-83
2022/06/10 11:11:53;;;;;;;19.00;17.20;;;;;;;17.72;91.95;98231.64;108240;1287;22390;-83
2022/06/10 11:14:35;;;;;;;17.70;15.90;;;;;;;17.80;92.10;98235.27;108261;1287;22420;-83
2022/06/10 11:17:15;;;;;;;19.50;17.60;;;;;;;17.81;91.73;98239.94;108235;1288;22892;-83
2022/06/10 11:19:45;;;;;;;17.30;15.60;;;;;;;17.81;91.58;98240.29;108236;1287;22389;-82
2022/06/10 11:22:21;;;;;;;22.70;16.00;;;;;;;17.86;91.64;98230.91;108238;1285;22550;-83
2022/06/10 11:25:15;;;;;;;18.90;16.10;;;;;;;18.00;91.53;98235.89;108430;1286;22420;-83
2022/06/10 11:27:49;;;;;;;14.50;13.30;;;;;;;18.11;90.13;98240.33;108250;1287;22462;-82
2022/06/10 11:30:22;;;;;;;15.30;13.00;;;;;;;18.11;89.74;98244.42;108421;1286;22280;-82
2022/06/10 11:32:56;;;;;;;13.00;11.70;;;;;;;18.08;89.44;98235.92;108248;1287;22303;-82
2022/06/10 11:35:33;;;;;;;;;;;;;;;18.10;88.75;98241.27;108292;1287;22461;-82
2022/06/10 11:38:27;;;;;;;13.00;10.90;;;;;;;18.02;88.32;98247.80;108195;1287;22294;-82
2022/06/10 11:41:12;;;;;;;17.00;11.50;;;;;;;17.95;88.92;98244.30;108060;1287;22534;-83
2022/06/10 11:43:47;;;;;;;13.10;11.70;;;;;;;18.01;89.08;98245.16;108249;1287;22314;-83
2022/06/10 11:46:27;;;;;;;14.70;12.00;;;;;;;18.00;88.54;98244.21;108268;1287;22369;-83
2022/06/10 11:49:25;;;;;;;18.00;11.70;;;;;;;17.92;88.72;98243.98;108277;1287;23029;-83
2022/06/10 11:52:08;;;;;;;11.60;10.50;;;;;;;17.89;88.82;98249.91;108273;1287;22441;-84
2022/06/10 11:55:09;;;;;;;11.90;10.80;;;;;;;17.85;88.49;98248.14;108430;1287;23139;-83
2022/06/10 12:00:34;;;;;;;11.30;10.40;;;;;;;17.93;88.56;98245.15;108439;1286;22480;-84
2022/06/10 12:03:24;;;;;;;12.00;10.70;;;;;;;18.00;88.56;98243.99;108296;1287;22420;-84